Time;durP1;ratioP1;P1;durP2;ratioP2;P2;SDS_P1;SDS_P2;PMS_P1;PMS_P2;Temp;Humidity;BMP_temperature;BMP_pressure;BME280_temperature;BME280_humidity;BME280_pressure;Samples;Min_cycle;Max_cycle;Signal;HPM_P1;HPM_P2
2020/12/02 00:00:16;;;;;;;84.90;24.80;;;;;;;-0.30;100.00;96033.59;1052974;28;20028;-40
2020/12/02 00:00:47;;;;;;;82.53;25.60;;;;;;;-0.37;100.00;96028.91;1057148;28;20012;-39
2020/12/02 00:01:18;;;;;;;85.77;28.47;;;;;;;-0.42;100.00;96032.84;1057258;28;20054;-39
2020/12/02 00:01:49;;;;;;;67.20;26.70;;;;;;;-0.40;100.00;96029.16;1052900;28;20103;-39
2020/12/02 00:02:22;;;;;;;109.73;28.83;;;;;;;-0.42;100.00;96025.09;1052769;28;20039;-38
2020/12/02 00:03:14;;;;;;;79.28;28.02;;;;;;;-0.40;100.00;96030.94;1053276;28;20137;-39
2020/12/02 00:04:09;;;;;;;71.70;25.95;;;;;;;-0.30;100.00;96028.41;1052424;28;20027;-39
2020/12/02 00:04:39;;;;;;;64.05;24.67;;;;;;;-0.29;100.00;96025.69;1053663;28;20015;-39
2020/12/02 00:05:11;;;;;;;59.33;25.63;;;;;;;-0.37;100.00;96031.47;1049736;28;20074;-40
2020/12/02 00:05:44;;;;;;;60.72;25.90;;;;;;;-0.32;100.00;96025.91;1049915;28;20020;-40
2020/12/02 00:06:14;;;;;;;83.90;25.88;;;;;;;-0.30;100.00;96028.41;1050863;28;20032;-39
2020/12/02 00:06:45;;;;;;;83.60;24.37;;;;;;;-0.29;100.00;96024.84;1053413;28;20016;-40
2020/12/02 00:07:15;;;;;;;63.73;25.60;;;;;;;-0.33;100.00;96019.13;1052751;28;20016;-40
2020/12/02 00:07:47;;;;;;;67.63;23.37;;;;;;;-0.24;100.00;96022.72;1053466;28;20072;-40
2020/12/02 00:08:31;;;;;;;66.20;24.33;;;;;;;-0.28;100.00;96029.09;1049444;28;20052;-39
2020/12/02 00:09:18;;;;;;;58.53;22.75;;;;;;;-0.39;100.00;96023.03;1051413;28;20484;-39
2020/12/02 00:09:48;;;;;;;50.92;22.77;;;;;;;-0.32;100.00;96025.13;1057966;28;20027;-40
2020/12/02 00:10:19;;;;;;;51.73;24.37;;;;;;;-0.28;100.00;96027.31;1057866;28;20471;-39
2020/12/02 00:10:49;;;;;;;56.73;25.07;;;;;;;-0.34;100.00;96035.59;1057561;28;20440;-40
2020/12/02 00:11:20;;;;;;;98.00;25.50;;;;;;;-0.41;100.00;96026.69;1057754;28;20476;-39
2020/12/02 00:11:51;;;;;;;94.17;25.03;;;;;;;-0.49;100.00;96040.28;1057798;28;20023;-39
2020/12/02 00:12:22;;;;;;;114.30;25.60;;;;;;;-0.46;100.00;96034.03;1055225;28;20030;-39
2020/12/02 00:12:53;;;;;;;94.13;23.63;;;;;;;-0.52;100.00;96035.38;1058097;28;20413;-39
2020/12/02 00:13:33;;;;;;;148.80;28.70;;;;;;;-0.50;100.00;96035.22;1058327;28;20016;-40
2020/12/02 00:14:05;;;;;;;58.03;23.50;;;;;;;-0.50;100.00;96030.91;1058219;28;20382;-40
2020/12/02 00:14:35;;;;;;;112.80;26.35;;;;;;;-0.58;100.00;96033.28;1057934;28;20027;-39
2020/12/02 00:15:07;;;;;;;155.50;29.43;;;;;;;-0.61;100.00;96030.97;1058009;28;20035;-40
2020/12/02 00:15:37;;;;;;;119.72;30.45;;;;;;;-0.57;100.00;96033.16;1058026;28;20123;-40
2020/12/02 00:16:08;;;;;;;61.60;26.17;;;;;;;-0.51;100.00;96024.06;1058034;28;20502;-40
2020/12/02 00:16:39;;;;;;;123.72;31.83;;;;;;;-0.49;100.00;96035.09;1057864;27;20020;-40
2020/12/02 00:17:15;;;;;;;151.70;31.87;;;;;;;-0.44;100.00;96026.97;1057716;28;20039;-40
2020/12/02 00:17:45;;;;;;;114.28;28.80;;;;;;;-0.43;100.00;96024.25;1058234;28;20015;-39
2020/12/02 00:18:16;;;;;;;66.20;26.63;;;;;;;-0.44;100.00;96022.63;1058061;28;20475;-39
2020/12/02 00:18:46;;;;;;;54.80;25.07;;;;;;;-0.42;100.00;96023.31;1058024;28;20047;-40
2020/12/02 00:19:17;;;;;;;58.40;24.47;;;;;;;-0.34;100.00;96022.66;1057624;28;20047;-40
2020/12/02 00:19:49;;;;;;;54.25;24.05;;;;;;;-0.32;100.00;96014.75;1057834;28;20408;-40
2020/12/02 00:20:19;;;;;;;74.55;24.83;;;;;;;-0.30;100.00;96015.47;1057972;28;20028;-39
2020/12/02 00:20:50;;;;;;;45.87;23.43;;;;;;;-0.29;100.00;96025.69;1058192;28;20016;-40
2020/12/02 00:21:22;;;;;;;102.37;28.57;;;;;;;-0.23;100.00;96019.16;1058039;28;20152;-40
2020/12/02 00:22:16;;;;;;;95.50;27.67;;;;;;;-0.26;100.00;96019.41;1056518;28;20053;-40
2020/12/02 00:22:46;;;;;;;101.82;25.42;;;;;;;-0.34;100.00;96020.06;1053537;28;20087;-39
2020/12/02 00:23:17;;;;;;;126.57;25.23;;;;;;;-0.34;100.00;96027.81;1053572;28;20475;-40
2020/12/02 00:23:47;;;;;;;143.97;28.93;;;;;;;-0.34;100.00;96019.25;1053563;28;20019;-40
2020/12/02 00:24:18;;;;;;;66.40;24.33;;;;;;;-0.32;100.00;96025.91;1053905;28;20023;-40
2020/12/02 00:24:50;;;;;;;82.00;26.00;;;;;;;-0.39;100.00;96030.81;1054014;28;20079;-40
2020/12/02 00:25:20;;;;;;;118.30;23.95;;;;;;;-0.40;100.00;96020.59;1053847;28;20097;-39
2020/12/02 00:25:51;;;;;;;75.00;24.60;;;;;;;-0.33;100.00;96028.63;1053943;28;20407;-39
2020/12/02 00:26:22;;;;;;;185.37;29.20;;;;;;;-0.45;100.00;96022.75;1054045;28;20084;-40
2020/12/02 00:26:53;;;;;;;102.57;25.90;;;;;;;-0.43;100.00;96033.78;1054061;28;20035;-39
2020/12/02 00:27:28;;;;;;;89.50;24.87;;;;;;;-0.50;100.00;96030.91;1053373;28;20028;-40
2020/12/02 00:28:05;;;;;;;84.75;24.73;;;;;;;-0.39;100.00;96030.81;1053699;28;20028;-40
2020/12/02 00:28:36;;;;;;;119.65;26.67;;;;;;;-0.39;100.00;96032.59;1053350;28;20156;-40
2020/12/02 00:29:07;;;;;;;84.23;24.10;;;;;;;-0.46;100.00;96029.69;1052990;28;20045;-40
2020/12/02 00:29:37;;;;;;;154.33;26.67;;;;;;;-0.59;100.00;96024.72;1053584;28;20023;-41
2020/12/02 00:30:09;;;;;;;86.13;26.00;;;;;;;-0.63;100.00;96025.13;1054080;28;20114;-40
2020/12/02 00:30:40;;;;;;;183.23;29.42;;;;;;;-0.74;100.00;96029.41;1054022;28;20046;-40
2020/12/02 00:31:11;;;;;;;111.53;27.98;;;;;;;-0.69;100.00;96023.03;1053931;28;20405;-41
2020/12/02 00:31:41;;;;;;;92.60;26.87;;;;;;;-0.63;100.00;96023.34;1053519;28;20084;-40
2020/12/02 00:32:32;;;;;;;152.80;29.60;;;;;;;-0.60;100.00;96023.06;1053886;28;20027;-41
2020/12/02 00:33:23;;;;;;;148.00;28.42;;;;;;;-0.59;100.00;96026.50;1049038;28;20107;-41
2020/12/02 00:33:54;;;;;;;120.20;26.92;;;;;;;-0.67;100.00;96019.34;1053340;28;20024;-40
2020/12/02 00:34:24;;;;;;;120.17;24.73;;;;;;;-0.64;100.00;96021.69;1053604;28;20376;-39
2020/12/02 00:34:55;;;;;;;108.87;27.10;;;;;;;-0.61;100.00;96025.78;1053746;28;20024;-40
2020/12/02 00:35:26;;;;;;;69.17;22.83;;;;;;;-0.55;100.00;96027.88;1054040;28;20020;-39
2020/12/02 00:35:56;;;;;;;58.37;23.50;;;;;;;-0.61;100.00;96031.81;1053687;28;20047;-40
2020/12/02 00:36:27;;;;;;;74.07;22.50;;;;;;;-0.62;100.00;96024.97;1053639;28;20051;-40
2020/12/02 00:36:57;;;;;;;56.03;22.57;;;;;;;-0.62;100.00;96027.56;1053492;28;20030;-40
2020/12/02 00:37:28;;;;;;;47.43;21.53;;;;;;;-0.56;100.00;96028.84;1053729;28;20488;-40
2020/12/02 00:37:59;;;;;;;57.67;23.13;;;;;;;-0.59;100.00;96031.69;1049416;28;20028;-40
2020/12/02 00:38:30;;;;;;;48.30;21.27;;;;;;;-0.52;100.00;96035.38;1049562;28;20024;-40
2020/12/02 00:39:00;;;;;;;42.40;20.97;;;;;;;-0.46;100.00;96034.03;1052878;28;20175;-40
2020/12/02 00:39:31;;;;;;;50.73;20.97;;;;;;;-0.53;100.00;96031.16;1053690;28;20096;-41
2020/12/02 00:40:02;;;;;;;66.33;22.73;;;;;;;-0.57;100.00;96032.34;1053805;28;20013;-41
2020/12/02 00:40:33;;;;;;;69.45;23.75;;;;;;;-0.52;100.00;96035.38;1053573;28;20031;-41
2020/12/02 00:41:04;;;;;;;68.50;21.50;;;;;;;-0.55;100.00;96033.03;1053727;28;20020;-40
2020/12/02 00:41:35;;;;;;;116.10;23.77;;;;;;;-0.60;100.00;96040.38;1053628;28;20269;-40
2020/12/02 00:42:05;;;;;;;114.00;22.17;;;;;;;-0.62;100.00;96031.91;1053398;28;20031;-40
2020/12/02 00:42:36;;;;;;;105.47;22.33;;;;;;;-0.59;100.00;96034.25;1054036;28;20622;-39
2020/12/02 00:43:06;;;;;;;114.13;23.00;;;;;;;-0.58;100.00;96035.88;1053518;28;20054;-40
2020/12/02 00:43:37;;;;;;;60.77;19.87;;;;;;;-0.57;100.00;96025.41;1053889;28;20042;-40
2020/12/02 00:44:08;;;;;;;68.13;18.70;;;;;;;-0.53;100.00;96031.16;1053388;28;20069;-40
2020/12/02 00:44:38;;;;;;;87.20;21.23;;;;;;;-0.54;100.00;96035.50;1053944;28;20023;-40
2020/12/02 00:45:09;;;;;;;83.50;20.43;;;;;;;-0.70;100.00;96029.94;1053141;28;20024;-40
2020/12/02 00:45:40;;;;;;;86.20;21.77;;;;;;;-0.78;100.00;96028.00;1052954;28;20015;-40
2020/12/02 00:46:11;;;;;;;76.60;22.85;;;;;;;-0.82;100.00;96028.38;1052850;28;20024;-40
2020/12/02 00:46:46;;;;;;;58.53;21.47;;;;;;;-0.79;100.00;96041.91;1048336;28;20044;-40
2020/12/02 00:47:21;;;;;;;69.63;23.63;;;;;;;-0.87;100.00;96033.13;1049246;28;20036;-40
2020/12/02 00:47:51;;;;;;;75.75;23.35;;;;;;;-0.82;100.00;96034.41;1048499;28;20043;-39
2020/12/02 00:48:22;;;;;;;60.70;20.90;;;;;;;-0.80;100.00;96034.28;1049725;28;20052;-40
2020/12/02 00:48:53;;;;;;;57.95;19.90;;;;;;;-0.87;100.00;96036.53;1052866;28;20020;-40
2020/12/02 00:49:23;;;;;;;36.60;19.27;;;;;;;-0.77;100.00;96039.19;1052791;28;20016;-39
2020/12/02 00:49:55;;;;;;;36.30;19.67;;;;;;;-0.79;100.00;96030.72;1052956;28;20050;-40
2020/12/02 00:50:25;;;;;;;69.57;22.63;;;;;;;-0.83;100.00;96032.75;1052882;28;20824;-39
2020/12/02 00:50:56;;;;;;;75.17;23.47;;;;;;;-0.86;100.00;96030.41;1052915;28;20020;-39
2020/12/02 00:51:27;;;;;;;61.45;21.77;;;;;;;-0.89;100.00;96028.09;1052953;28;20036;-39
2020/12/02 00:51:57;;;;;;;38.73;20.97;;;;;;;-0.84;100.00;96036.28;1048340;28;20024;-39
2020/12/02 00:52:28;;;;;;;41.90;21.83;;;;;;;-0.78;100.00;96034.94;1044251;28;20025;-39
2020/12/02 00:53:09;;;;;;;62.27;21.73;;;;;;;-0.77;100.00;96037.41;1044176;28;20108;-39
2020/12/02 00:53:40;;;;;;;40.95;21.30;;;;;;;-0.78;100.00;96034.94;1046335;28;20024;-39
2020/12/02 00:54:10;;;;;;;51.90;22.03;;;;;;;-0.75;100.00;96038.09;1049897;28;20115;-40
2020/12/02 00:54:43;;;;;;;82.53;21.73;;;;;;;-0.70;100.00;96036.91;1052428;28;20011;-39
2020/12/02 00:55:14;;;;;;;42.08;19.90;;;;;;;-0.66;100.00;96044.28;1052642;28;20035;-39
2020/12/02 00:55:45;;;;;;;45.80;20.53;;;;;;;-0.83;100.00;96037.91;1052717;28;20012;-40
2020/12/02 00:56:16;;;;;;;43.50;21.00;;;;;;;-0.79;100.00;96033.31;1052219;28;20069;-39
2020/12/02 00:56:46;;;;;;;40.60;20.50;;;;;;;-0.78;100.00;96034.94;1052145;28;20105;-39
2020/12/02 00:57:20;;;;;;;53.00;20.87;;;;;;;-0.81;100.00;96036.03;1048260;28;20016;-40
2020/12/02 00:57:50;;;;;;;62.10;20.88;;;;;;;-0.81;100.00;96035.22;1048452;28;20393;-40
2020/12/02 00:58:41;;;;;;;51.83;19.40;;;;;;;-0.87;100.00;96039.09;1044881;28;20494;-40
2020/12/02 00:59:24;;;;;;;49.85;20.77;;;;;;;-0.82;100.00;96033.56;1051276;28;20039;-38
2020/12/02 00:59:56;;;;;;;40.47;20.40;;;;;;;-0.84;100.00;96031.09;1044541;28;20480;-39
2020/12/02 01:00:27;;;;;;;41.70;21.98;;;;;;;-0.90;100.00;96029.03;1048657;28;20070;-39
2020/12/02 01:00:57;;;;;;;54.55;22.52;;;;;;;-0.88;100.00;96018.56;1044373;28;20080;-39
2020/12/02 01:01:38;;;;;;;37.63;20.97;;;;;;;-0.91;100.00;96030.00;1045429;28;20037;-39
2020/12/02 01:02:27;;;;;;;56.42;24.08;;;;;;;-0.94;100.00;96023.28;1053128;28;20016;-39
2020/12/02 01:03:16;;;;;;;56.20;22.80;;;;;;;-0.96;100.00;96026.94;1052808;28;20024;-39
2020/12/02 01:03:47;;;;;;;53.20;22.30;;;;;;;-1.10;100.00;96020.31;1053397;28;20020;-39
2020/12/02 01:04:19;;;;;;;48.40;22.75;;;;;;;-1.09;100.00;96022.78;1053704;28;20488;-39
2020/12/02 01:04:49;;;;;;;40.63;22.75;;;;;;;-1.08;100.00;96024.44;1057292;28;20016;-39
2020/12/02 01:05:20;;;;;;;50.80;24.53;;;;;;;-1.00;100.00;96025.53;1051046;28;20069;-39
2020/12/02 01:05:50;;;;;;;51.47;23.97;;;;;;;-0.97;100.00;96015.78;1053598;28;20452;-39
2020/12/02 01:06:21;;;;;;;73.00;24.17;;;;;;;-1.02;100.00;96017.13;1044930;28;20416;-39
2020/12/02 01:06:53;;;;;;;47.23;22.53;;;;;;;-1.04;100.00;96014.66;1045079;28;20009;-39
2020/12/02 01:07:23;;;;;;;49.92;23.23;;;;;;;-1.02;100.00;96017.91;1053517;28;20020;-39
2020/12/02 01:07:54;;;;;;;54.63;23.40;;;;;;;-0.97;100.00;96022.72;1047584;28;20020;-40
2020/12/02 01:08:36;;;;;;;43.27;21.63;;;;;;;-0.93;100.00;96018.94;1047968;28;20566;-40
2020/12/02 01:09:06;;;;;;;50.55;22.95;;;;;;;-0.84;100.00;96012.19;1049063;28;20054;-39
2020/12/02 01:09:37;;;;;;;53.83;22.33;;;;;;;-0.86;100.00;96014.91;1050709;28;20084;-40
2020/12/02 01:10:08;;;;;;;50.33;22.93;;;;;;;-0.75;100.00;96019.19;1053288;28;20225;-39
2020/12/02 01:10:38;;;;;;;64.23;24.00;;;;;;;-0.77;100.00;96019.31;1053397;28;20080;-39
2020/12/02 01:11:16;;;;;;;61.03;22.17;;;;;;;-0.82;100.00;96016.31;1052143;28;20285;-39
2020/12/02 01:11:47;;;;;;;49.33;23.52;;;;;;;-0.89;100.00;96022.91;1053631;28;20461;-39
2020/12/02 01:12:17;;;;;;;48.33;23.93;;;;;;;-0.85;100.00;96011.38;1049169;28;20079;-39
2020/12/02 01:12:48;;;;;;;53.70;24.20;;;;;;;-0.82;100.00;96016.31;1049219;28;20022;-39
2020/12/02 01:13:18;;;;;;;37.20;20.93;;;;;;;-0.77;100.00;96018.50;1049336;28;20048;-40
2020/12/02 01:14:00;;;;;;;63.33;24.83;;;;;;;-0.91;100.00;96009.31;1049608;28;20265;-40
2020/12/02 01:14:30;;;;;;;50.97;22.73;;;;;;;-0.95;100.00;96013.09;1053829;28;20023;-39
2020/12/02 01:15:01;;;;;;;76.87;25.90;;;;;;;-0.99;100.00;96009.09;1053720;28;20464;-39
2020/12/02 01:15:31;;;;;;;44.00;22.03;;;;;;;-0.95;100.00;96018.25;1053835;28;20103;-39
2020/12/02 01:16:07;;;;;;;45.40;23.50;;;;;;;-0.85;100.00;96018.31;1053848;28;20020;-39
2020/12/02 01:16:41;;;;;;;44.58;22.70;;;;;;;-0.85;100.00;96018.31;1053816;28;20023;-39
2020/12/02 01:17:12;;;;;;;45.78;22.98;;;;;;;-0.83;100.00;96013.84;1053801;28;20024;-39
2020/12/02 01:17:42;;;;;;;50.37;22.23;;;;;;;-0.80;100.00;96014.41;1053747;28;20055;-39
2020/12/02 01:18:20;;;;;;;38.50;22.17;;;;;;;-0.78;100.00;96011.69;1053488;28;20404;-40
2020/12/02 01:18:51;;;;;;;42.72;23.10;;;;;;;-0.72;100.00;96013.75;1053515;28;20028;-39
2020/12/02 01:19:23;;;;;;;39.27;22.13;;;;;;;-0.69;100.00;96013.50;1052824;28;20056;-39
2020/12/02 01:19:54;;;;;;;38.28;21.13;;;;;;;-0.68;100.00;96012.56;1053524;28;20422;-39
2020/12/02 01:20:24;;;;;;;40.33;21.77;;;;;;;-0.70;100.00;96011.03;1052992;28;20020;-39
2020/12/02 01:21:22;;;;;;;49.07;23.03;;;;;;;-0.67;100.00;96010.78;1048494;28;20020;-39
2020/12/02 01:22:05;;;;;;;39.42;20.15;;;;;;;-0.68;100.00;96011.72;1043653;28;20017;-39
2020/12/02 01:22:38;;;;;;;36.38;21.02;;;;;;;-0.66;100.00;96008.06;1047550;28;20080;-39
2020/12/02 01:23:11;;;;;;;41.78;21.88;;;;;;;-0.62;100.00;96013.81;1048730;28;20035;-40
2020/12/02 01:23:47;;;;;;;48.10;21.90;;;;;;;-0.58;100.00;96008.28;1045730;28;20684;-40
2020/12/02 01:24:20;;;;;;;44.92;21.98;;;;;;;-0.64;100.00;96010.53;1040958;28;20025;-40
2020/12/02 01:25:23;;;;;;;36.13;20.30;;;;;;;-0.52;100.00;96012.09;1040574;28;20048;-39
2020/12/02 01:25:53;;;;;;;36.97;20.50;;;;;;;-0.55;100.00;96014.94;1029155;28;20019;-38
2020/12/02 01:26:26;;;;;;;37.17;20.90;;;;;;;-0.62;100.00;96006.88;1025196;28;20444;-38
2020/12/02 01:27:07;;;;;;;38.85;20.52;;;;;;;-0.56;100.00;96008.94;1020635;29;20034;-39
2020/12/02 01:27:49;;;;;;;49.70;23.73;;;;;;;-0.61;100.00;96005.09;1020219;28;20354;-39
2020/12/02 01:28:27;;;;;;;43.08;20.67;;;;;;;-0.64;100.00;96005.34;1028048;28;20345;-39
2020/12/02 01:28:57;;;;;;;43.13;22.10;;;;;;;-0.66;100.00;96002.09;1036620;28;20025;-39
2020/12/02 01:29:28;;;;;;;38.93;20.20;;;;;;;-0.65;100.00;96006.31;1039500;28;20029;-39
2020/12/02 01:29:59;;;;;;;39.07;21.50;;;;;;;-0.63;100.00;96009.59;1036451;28;20021;-39
2020/12/02 01:30:29;;;;;;;46.60;23.27;;;;;;;-0.66;100.00;96007.28;1036626;28;20034;-40
2020/12/02 01:31:00;;;;;;;39.53;22.33;;;;;;;-0.67;100.00;96005.63;1027609;28;20105;-39
2020/12/02 01:31:30;;;;;;;43.60;21.90;;;;;;;-0.62;100.00;96004.28;1027411;28;20099;-39
2020/12/02 01:32:01;;;;;;;43.97;22.93;;;;;;;-0.65;100.00;96009.72;1028180;28;20130;-39
2020/12/02 01:32:31;;;;;;;41.13;22.23;;;;;;;-0.60;100.00;96006.75;1028578;28;20027;-39
2020/12/02 01:33:02;;;;;;;40.83;22.00;;;;;;;-0.54;100.00;96006.22;1031939;28;20074;-39
2020/12/02 01:33:32;;;;;;;48.10;22.40;;;;;;;-0.56;100.00;96008.13;1035365;28;20029;-39
2020/12/02 01:34:03;;;;;;;45.83;23.83;;;;;;;-0.54;100.00;96012.22;1039050;28;20033;-39
2020/12/02 01:34:33;;;;;;;37.77;21.40;;;;;;;-0.52;100.00;96006.91;1031830;28;20040;-39
2020/12/02 01:35:04;;;;;;;38.77;22.27;;;;;;;-0.49;100.00;96008.44;1031871;28;20094;-39
2020/12/02 01:35:34;;;;;;;40.00;22.33;;;;;;;-0.49;100.00;96017.00;1027786;28;20101;-38
2020/12/02 01:36:05;;;;;;;36.73;21.13;;;;;;;-0.50;100.00;96007.63;1027961;28;20123;-38
2020/12/02 01:37:07;;;;;;;43.50;22.60;;;;;;;-0.47;100.00;96012.53;1031799;28;20024;-39
2020/12/02 01:37:40;;;;;;;35.72;21.25;;;;;;;-0.51;100.00;96008.56;1035123;28;20049;-39
2020/12/02 01:38:11;;;;;;;40.33;21.52;;;;;;;-0.45;100.00;96005.47;1031543;28;20024;-39
2020/12/02 01:38:42;;;;;;;38.13;20.80;;;;;;;-0.46;100.00;96008.97;1027891;28;20475;-39
2020/12/02 01:39:12;;;;;;;38.57;21.33;;;;;;;-0.49;100.00;96005.84;1028552;28;20416;-39
2020/12/02 01:39:46;;;;;;;35.83;20.67;;;;;;;-0.46;100.00;96001.22;1031899;28;20044;-40
2020/12/02 01:40:20;;;;;;;37.67;22.17;;;;;;;-0.44;100.00;96004.53;1028438;28;20010;-39
2020/12/02 01:40:51;;;;;;;41.30;22.25;;;;;;;-0.39;100.00;96009.31;1031793;28;20085;-40
2020/12/02 01:41:22;;;;;;;42.90;22.47;;;;;;;-0.42;100.00;96002.59;1031976;28;20487;-39
2020/12/02 01:41:52;;;;;;;42.07;22.23;;;;;;;-0.37;100.00;95999.63;1032729;28;20605;-40
2020/12/02 01:42:23;;;;;;;47.57;23.00;;;;;;;-0.38;100.00;96005.75;1035591;28;20485;-39
2020/12/02 01:43:02;;;;;;;47.67;23.90;;;;;;;-0.32;100.00;95996.66;1031434;28;20101;-40
2020/12/02 01:43:34;;;;;;;40.97;22.38;;;;;;;-0.42;100.00;96002.59;1030254;28;20064;-40
2020/12/02 01:44:04;;;;;;;33.25;20.45;;;;;;;-0.43;100.00;96003.56;1032932;28;20034;-39
2020/12/02 01:44:35;;;;;;;30.47;19.77;;;;;;;-0.41;100.00;96001.66;1039899;28;20014;-39
2020/12/02 01:45:17;;;;;;;30.30;19.90;;;;;;;-0.32;100.00;95991.47;1039874;28;20041;-39
2020/12/02 01:45:49;;;;;;;34.83;20.13;;;;;;;-0.34;99.97;95991.59;1035777;28;20471;-39
2020/12/02 01:46:25;;;;;;;32.95;20.20;;;;;;;-0.30;100.00;96000.75;1035813;28;20056;-39
2020/12/02 01:47:06;;;;;;;36.53;21.92;;;;;;;-0.32;100.00;95994.06;1030581;28;20027;-40
2020/12/02 01:47:58;;;;;;;35.53;22.13;;;;;;;-0.37;100.00;95991.88;1034422;28;20026;-39
2020/12/02 01:48:47;;;;;;;35.67;21.95;;;;;;;-0.38;100.00;95991.06;1031878;28;20312;-39
2020/12/02 01:49:30;;;;;;;38.70;21.77;;;;;;;-0.48;100.00;95997.97;1035640;28;20017;-39
2020/12/02 01:50:31;;;;;;;44.75;24.42;;;;;;;-0.44;100.00;96012.28;1031791;28;20025;-41
2020/12/02 01:51:03;;;;;;;34.35;21.42;;;;;;;-0.37;100.00;96007.41;1025374;28;20031;-42
2020/12/02 01:52:00;;;;;;;34.63;21.30;;;;;;;-0.31;100.00;96003.47;1032736;28;20032;-41
2020/12/02 01:52:43;;;;;;;33.60;21.52;;;;;;;-0.29;100.00;96001.56;1031179;28;20038;-41
2020/12/02 01:53:37;;;;;;;33.65;21.05;;;;;;;-0.37;100.00;95997.84;1033582;28;20018;-40
2020/12/02 01:54:16;;;;;;;36.17;22.55;;;;;;;-0.29;100.00;95999.81;1030068;28;20046;-41
2020/12/02 01:54:52;;;;;;;34.22;21.52;;;;;;;-0.26;99.82;95998.72;1035979;28;20026;-41
2020/12/02 01:55:25;;;;;;;36.50;22.83;;;;;;;-0.34;99.97;95999.38;1033328;28;20141;-41
2020/12/02 01:55:58;;;;;;;34.45;22.88;;;;;;;-0.31;100.00;95995.72;1032582;28;20193;-40
2020/12/02 01:56:35;;;;;;;35.72;22.38;;;;;;;-0.27;99.88;95991.91;1028263;28;20162;-41
2020/12/02 01:57:32;;;;;;;38.67;23.15;;;;;;;-0.31;99.96;95993.94;1028601;28;20050;-40
2020/12/02 01:58:11;;;;;;;33.97;22.55;;;;;;;-0.25;99.73;95990.00;1032178;28;20074;-41
2020/12/02 01:58:54;;;;;;;32.40;22.27;;;;;;;-0.22;99.75;95994.94;1032674;28;20034;-40
2020/12/02 01:59:40;;;;;;;36.88;22.80;;;;;;;-0.24;99.92;95992.47;1032466;28;20018;-39
2020/12/02 02:00:13;;;;;;;33.90;22.05;;;;;;;-0.18;99.14;95993.72;1028486;28;20062;-39
2020/12/02 02:00:47;;;;;;;34.78;22.05;;;;;;;-0.25;99.20;96000.38;1028530;28;20078;-40
2020/12/02 02:01:48;;;;;;;33.90;22.45;;;;;;;-0.21;99.48;95997.38;1027279;28;20129;-40
2020/12/02 02:02:37;;;;;;;34.28;22.52;;;;;;;-0.15;98.98;95990.88;1018848;28;20039;-41
2020/12/02 02:03:12;;;;;;;33.17;21.63;;;;;;;-0.20;99.20;95993.84;1035866;28;20025;-41
2020/12/02 02:03:42;;;;;;;33.38;22.38;;;;;;;-0.17;99.28;95992.75;1053356;28;20023;-41
2020/12/02 02:04:14;;;;;;;37.10;24.23;;;;;;;-0.20;99.35;95993.84;1053166;28;20381;-41
2020/12/02 02:05:03;;;;;;;34.95;23.05;;;;;;;-0.14;99.20;95992.50;1048791;28;20108;-42
2020/12/02 02:05:53;;;;;;;36.10;24.20;;;;;;;-0.16;99.42;95993.59;1049035;28;20067;-41
2020/12/02 02:06:32;;;;;;;33.15;22.75;;;;;;;-0.14;99.07;95989.91;1045972;28;20021;-41
2020/12/02 02:07:07;;;;;;;38.05;24.40;;;;;;;-0.15;98.89;95997.78;1044664;28;20370;-41
2020/12/02 02:07:38;;;;;;;33.63;22.27;;;;;;;-0.11;98.30;95997.41;1044906;28;20064;-42
2020/12/02 02:08:09;;;;;;;34.83;23.40;;;;;;;-0.09;98.73;95992.94;1049472;28;20017;-42
2020/12/02 02:08:42;;;;;;;34.35;23.42;;;;;;;-0.04;98.59;95995.13;1050735;28;20119;-41
2020/12/02 02:09:12;;;;;;;37.05;24.17;;;;;;;-0.05;98.86;95996.06;1053159;28;20110;-42
2020/12/02 02:09:47;;;;;;;34.63;23.63;;;;;;;-0.03;99.19;95999.31;1048932;28;20036;-41
2020/12/02 02:10:35;;;;;;;35.70;24.48;;;;;;;-0.06;99.05;95995.25;1049782;28;20077;-42
2020/12/02 02:11:06;;;;;;;35.92;23.50;;;;;;;-0.09;98.43;95995.53;1052946;28;20148;-40
2020/12/02 02:11:38;;;;;;;32.40;22.60;;;;;;;-0.06;98.91;95991.81;1053518;28;20112;-40
2020/12/02 02:12:11;;;;;;;36.95;23.60;;;;;;;-0.06;98.15;95995.25;1048915;28;20029;-40
2020/12/02 02:13:28;;;;;;;32.90;23.25;;;;;;;-0.06;97.84;95997.84;1048983;28;20025;-40
2020/12/02 02:14:23;;;;;;;35.25;22.17;;;;;;;-0.08;98.47;95997.13;1042958;28;20029;-40
2020/12/02 02:15:07;;;;;;;34.97;23.40;;;;;;;-0.09;98.47;95995.53;1042288;28;20143;-41
2020/12/02 02:15:46;;;;;;;34.80;23.13;;;;;;;-0.13;98.38;95986.38;1050064;28;20021;-40
2020/12/02 02:16:38;;;;;;;34.17;23.10;;;;;;;-0.10;98.63;95987.88;1053146;28;20024;-39
2020/12/02 02:17:09;;;;;;;33.15;22.58;;;;;;;-0.08;98.02;95996.31;1053561;28;20015;-40
2020/12/02 02:17:39;;;;;;;34.93;22.53;;;;;;;-0.05;97.63;95994.28;1053555;28;20024;-40
2020/12/02 02:18:13;;;;;;;36.13;24.40;;;;;;;-0.08;97.96;95991.97;1053555;28;20097;-40
2020/12/02 02:18:44;;;;;;;36.28;24.35;;;;;;;-0.02;97.80;95986.25;1053803;28;20028;-40
2020/12/02 02:19:20;;;;;;;36.50;24.77;;;;;;;-0.05;97.74;95989.09;1051050;28;20040;-40
2020/12/02 02:19:51;;;;;;;39.95;25.75;;;;;;;-0.12;97.81;95992.34;1053428;28;20085;-39
2020/12/02 02:20:27;;;;;;;35.53;24.13;;;;;;;-0.11;98.07;95992.22;1048902;28;20078;-40
2020/12/02 02:21:15;;;;;;;37.35;24.73;;;;;;;-0.07;98.17;95990.22;1044884;28;20009;-40
2020/12/02 02:21:52;;;;;;;41.67;25.48;;;;;;;-0.03;97.86;95988.97;1040570;28;20493;-40
2020/12/02 02:22:23;;;;;;;38.47;25.20;;;;;;;-0.02;97.87;95994.00;1047786;28;20078;-40
2020/12/02 02:22:53;;;;;;;39.87;24.70;;;;;;;0.04;97.22;95991.88;1052348;28;20024;-40
2020/12/02 02:23:24;;;;;;;37.63;25.43;;;;;;;-0.02;97.48;95991.44;1053291;28;20020;-40
2020/12/02 02:23:54;;;;;;;38.30;25.23;;;;;;;-0.02;97.49;95988.03;1052966;28;20024;-40
2020/12/02 02:24:25;;;;;;;41.67;26.13;;;;;;;-0.03;97.62;95991.56;1048837;28;20025;-40
2020/12/02 02:24:56;;;;;;;39.00;25.07;;;;;;;0.05;97.45;95991.72;1049430;28;20717;-40
2020/12/02 02:25:27;;;;;;;41.08;26.52;;;;;;;0.07;97.12;95984.63;1044968;28;20298;-39
2020/12/02 02:26:06;;;;;;;43.57;27.57;;;;;;;0.03;97.04;95993.66;1049271;28;20085;-39
2020/12/02 02:26:39;;;;;;;48.03;28.52;;;;;;;-0.11;97.91;95989.63;1049116;28;20113;-40
2020/12/02 02:27:09;;;;;;;39.92;26.20;;;;;;;-0.09;98.37;95992.09;1050711;28;20042;-40
2020/12/02 02:27:40;;;;;;;44.87;27.90;;;;;;;-0.07;98.59;95988.44;1053054;28;20020;-40
2020/12/02 02:28:10;;;;;;;43.90;27.00;;;;;;;-0.09;98.42;95986.91;1049260;28;20488;-40
2020/12/02 02:29:06;;;;;;;41.87;26.77;;;;;;;-0.15;98.93;95988.28;1048949;28;20036;-41
2020/12/02 02:29:38;;;;;;;46.60;26.23;;;;;;;-0.16;98.98;95989.22;1041824;28;20021;-41
2020/12/02 02:30:09;;;;;;;43.05;26.83;;;;;;;-0.10;99.15;95991.28;1040674;28;20067;-40
2020/12/02 02:30:39;;;;;;;42.67;26.70;;;;;;;-0.06;99.17;95990.06;1043966;28;20044;-40
2020/12/02 02:31:15;;;;;;;41.60;27.13;;;;;;;-0.05;98.95;95986.50;1044167;28;20131;-40
2020/12/02 02:32:02;;;;;;;43.40;26.77;;;;;;;-0.02;98.79;95993.22;1041490;28;20477;-40
2020/12/02 02:32:32;;;;;;;39.85;26.30;;;;;;;-0.13;98.63;95988.97;1047958;28;20396;-41
2020/12/02 02:33:03;;;;;;;42.63;26.50;;;;;;;-0.17;98.69;95986.75;1051672;28;20017;-39
2020/12/02 02:33:33;;;;;;;42.87;27.87;;;;;;;-0.20;99.02;95991.25;1053159;28;20558;-39
2020/12/02 02:34:04;;;;;;;43.80;27.60;;;;;;;-0.21;99.08;95986.22;1053269;28;20023;-39
2020/12/02 02:34:35;;;;;;;39.33;27.33;;;;;;;-0.17;99.13;95987.56;1048715;28;20023;-39
2020/12/02 02:35:06;;;;;;;48.10;28.15;;;;;;;-0.24;99.11;95983.91;1048854;28;20023;-39
2020/12/02 02:35:36;;;;;;;45.40;29.37;;;;;;;-0.27;99.05;95987.56;1049002;28;20019;-38
2020/12/02 02:36:11;;;;;;;45.57;28.57;;;;;;;-0.25;99.53;95983.06;1048989;28;20143;-38
2020/12/02 02:36:41;;;;;;;48.10;28.40;;;;;;;-0.25;99.18;95982.25;1052478;28;20068;-38
2020/12/02 02:37:12;;;;;;;44.43;27.47;;;;;;;-0.21;99.37;95986.22;1053344;28;20154;-38
2020/12/02 02:37:43;;;;;;;42.28;27.58;;;;;;;-0.14;98.98;95982.13;1053322;28;20016;-38